Home > Products > Valid Products > TAF

000
FTUS41 KLWX 302337
TAFMRB
TAF
KMRB 302337Z 3100/3124 28009KT P6SM SCT250
     FM310200 VRB04KT P6SM SCT050 BKN090
     FM310800 VRB04KT P6SM BKN050
     FM311400 22010G20KT P6SM BKN050
     FM311700 27010G20KT 5SM -SHRA OVC050
     FM312200 33010G20KT P6SM BKN050=



000
FTUS41 KLWX 302337
TAFCHO
TAF
KCHO 302337Z 3100/3124 30006KT P6SM FEW250
     FM310200 VRB03KT P6SM SCT090
     FM311400 22010G18KT P6SM SCT090
     FM311600 23016G28KT P6SM SCT090
     FM312300 28012KT P6SM SCT050=



000
FTUS41 KLWX 302337
TAFIAD
TAF
KIAD 302337Z 3100/0106 29010KT P6SM FEW250
     FM310200 VRB04KT P6SM SCT050 BKN090
     FM311400 22008G16KT P6SM SCT050 BKN090
     FM311600 23015G27KT P6SM SCT050 BKN090
     FM312100 25015G27KT 5SM -SHRA OVC050
     FM312300 33012G22KT P6SM BKN050=



000
FTUS41 KLWX 302337
TAFMTN
TAF
KMTN 302337Z 3100/3124 29008KT P6SM FEW250
     FM310300 VRB04KT P6SM SCT050 BKN090
     FM311400 22009KT P6SM BKN050
     FM311600 23015G28KT P6SM BKN050
     FM312000 25016G28KT 5SM -SHRA OVC050
      AMD NOT SKED 3102/3112=



000
FTUS41 KLWX 302337
TAFBWI
TAF
KBWI 302337Z 3100/0106 29010KT P6SM FEW250
     FM310200 VRB04KT P6SM SCT050 BKN090
     FM311400 22009KT P6SM BKN050
     FM311600 23015G28KT P6SM BKN050
     FM312100 25016G28KT 5SM -SHRA OVC050
     FM010000 32012G22KT P6SM BKN050=



000
FTUS41 KLWX 302337
TAFDCA
TAF
KDCA 302337Z 3100/3124 29010KT P6SM FEW250
     FM310200 VRB04KT P6SM SCT050 BKN090
     FM311400 22010KT P6SM SCT050 BKN090
     FM311600 23016G28KT P6SM SCT050 BKN090
     FM312200 25016G28KT 5SM -SHRA OVC050=



000
FTUS41 KLWX 302101 AAA
TAFBWI
TAF AMD
KBWI 302101Z 3021/3124 30015G27KT P6SM SCT250
     FM302300 29010KT P6SM FEW200
     FM310600 26006KT P6SM FEW250
     FM311000 25004KT P6SM BKN050
     FM311500 21014G22KT P6SM OVC060
     FM311800 22016G26KT P6SM -RA OVC070
     FM312300 29012G21KT P6SM OVC050=



000
FTUS41 KLWX 302101 AAA
TAFDCA
TAF AMD
KDCA 302101Z 3021/3118 31014G26KT P6SM SCT070
     FM302300 29010KT P6SM FEW250
     FM310400 27006KT P6SM FEW250
     FM310900 24005KT P6SM BKN070
     FM311500 20010KT P6SM BKN050
     FM311700 21015G25KT P6SM BKN070=



000
FTUS41 KLWX 302101 AAA
TAFIAD
TAF AMD
KIAD 302101Z 3021/3124 30015G25KT P6SM SCT200
     FM302300 30010KT P6SM FEW250
     FM310300 26006KT P6SM FEW250
     FM311400 20009KT P6SM BKN050
     FM311600 20014G27KT P6SM BKN060
     FM312300 29014G22KT P6SM BKN045=



000
FTUS41 KLWX 301728
TAFCHO
TAF
KCHO 301728Z 3018/3118 27009G18KT P6SM BKN070
     FM302300 29008KT P6SM FEW250
     FM310600 24004KT P6SM SCT200
     FM311300 21009KT P6SM SCT130
     FM311600 21015G26KT P6SM SCT120=



000
FTUS41 KLWX 301728
TAFCHO
TAF
KCHO 301728Z 3018/3118 27009G18KT P6SM BKN070
     FM302300 29008KT P6SM FEW250
     FM310600 24004KT P6SM SCT200
     FM311300 21009KT P6SM SCT130
     FM311600 21015G26KT P6SM SCT120=



000
FTUS41 KLWX 301728
TAFBWI
TAF
KBWI 301728Z 3018/3124 25015G22KT P6SM SCT070 SCT100
     FM301900 29015G27KT P6SM SCT250
     FM302300 29010KT P6SM FEW200
     FM310600 26006KT P6SM FEW250
     FM311000 25004KT P6SM BKN050
     FM311500 21014G22KT P6SM OVC060
     FM311800 22016G26KT P6SM -RA OVC070
     FM312300 29012G21KT P6SM OVC050=



000
FTUS41 KLWX 301728
TAFMTN
TAF
KMTN 301728Z 3018/3118 21013G22KT P6SM BKN050 BKN070
     FM302000 29015G28KT P6SM SCT250
     FM302300 29010KT P6SM FEW200
     FM310600 26006KT P6SM FEW250
     FM311000 25004KT P6SM BKN045
     FM311500 21014G22KT P6SM OVC060=



000
FTUS41 KLWX 301728
TAFMRB
TAF
KMRB 301728Z 3018/3118 31015G26KT P6SM SKC
     FM301900 30015G25KT P6SM SCT200
     FM302300 30010KT P6SM FEW250
     FM310300 26006KT P6SM FEW250
     FM311400 20009KT P6SM BKN050
     FM311600 20014G25KT P6SM BKN060=



000
FTUS41 KLWX 301728
TAFDCA
TAF
KDCA 301728Z 3018/3118 24010G18KT P6SM SCT050 SCT070
     FM301900 29014G26KT P6SM SCT070
     FM302300 29010KT P6SM FEW250
     FM310400 27006KT P6SM FEW250
     FM310900 24005KT P6SM BKN070
     FM311500 20010KT P6SM BKN050
     FM311700 21015G25KT P6SM BKN070=



000
FTUS41 KLWX 301728
TAFIAD
TAF
KIAD 301728Z 3018/3124 25009G17KT P6SM SCT050 SCT070
     FM301900 30015G25KT P6SM SCT200
     FM302300 30010KT P6SM FEW250
     FM310300 26006KT P6SM FEW250
     FM311400 20009KT P6SM BKN050
     FM311600 20014G27KT P6SM BKN060
     FM312300 29014G22KT P6SM BKN045=



000
FTUS41 KLWX 301502 AAA
TAFDCA
TAF AMD
KDCA 301502Z 3015/3112 22009G18KT P6SM BKN060 OVC090
     FM301700 29014G26KT P6SM SCT070
     FM302300 29010KT P6SM FEW250
     FM310400 27006KT P6SM FEW250
     FM311000 23005KT P6SM SCT045=



000
FTUS41 KLWX 301502 AAA
TAFIAD
TAF AMD
KIAD 301502Z 3015/3118 22009KT P6SM BKN050 OVC080
     FM301700 29014G26KT P6SM SCT070
     FM310000 29008KT P6SM FEW200
     FM310800 23005KT P6SM SCT110
     FM311000 22004KT P6SM BKN040
     FM311600 21012KT P6SM BKN060=



000
FTUS41 KLWX 301502 AAA
TAFBWI
TAF AMD
KBWI 301502Z 3015/3118 24009G16KT P6SM BKN050 OVC160
     FM301800 29015G27KT P6SM SCT250
     FM302300 29010KT P6SM FEW200
     FM310600 26006KT P6SM FEW250
     FM311100 23004KT P6SM BKN040
     FM311500 21009KT P6SM OVC045=



000
FTUS41 KLWX 301135
TAFCHO
TAF
KCHO 301135Z 3012/3112 21009KT P6SM BKN090
     FM301400 24006KT P6SM SCT250
     FM301700 28010G18KT P6SM FEW250
     FM310100 29006KT P6SM FEW250
     FM310800 VRB04KT P6SM SCT130=



000
FTUS41 KLWX 301135
TAFDCA
TAF
KDCA 301135Z 3012/3112 20011KT P6SM BKN050 OVC100
     FM301500 24010G17KT P6SM SCT050
     FM301800 28013G26KT P6SM SCT050
     FM302300 29011KT P6SM FEW050
     FM310100 29006KT P6SM FEW250=



000
FTUS41 KLWX 301135
TAFBWI
TAF
KBWI 301135Z 3012/3118 19003KT P6SM BKN060 OVC090
     FM301600 25012G20KT P6SM SCT050
     FM302000 29015G27KT P6SM SCT050
     FM310000 29010KT P6SM FEW050
     FM310200 29005KT P6SM FEW250
     FM311400 22013KT P6SM BKN050=



000
FTUS41 KLWX 301135
TAFMRB
TAF
KMRB 301135Z 3012/3112 20006KT P6SM OVC040
     FM301400 26009KT P6SM BKN050
     FM301600 28013G20KT P6SM SCT050
     FM310000 29009KT P6SM SCT050
     FM310600 VRB04KT P6SM BKN050=



000
FTUS41 KLWX 301135
TAFDCA
TAF
KDCA 301135Z 3012/3112 20011KT P6SM BKN050 OVC100
     FM301500 24010G17KT P6SM SCT050
     FM301800 28013G26KT P6SM SCT050
     FM302300 29011KT P6SM FEW050
     FM310100 29006KT P6SM FEW250=



000
FTUS41 KLWX 301135
TAFMTN
TAF
KMTN 301135Z 3012/3112 17006KT P6SM OVC080
     FM301700 27013G26KT P6SM SCT050
     FM310100 29009KT P6SM FEW050
     FM310400 26005KT P6SM SCT250
     FM310700 VRB03KT P6SM BKN050=



000
FTUS41 KLWX 301135
TAFBWI
TAF
KBWI 301135Z 3012/3118 19003KT P6SM BKN060 OVC090
     FM301600 25012G20KT P6SM SCT050
     FM302000 29015G27KT P6SM SCT050
     FM310000 29010KT P6SM FEW050
     FM310200 29005KT P6SM FEW250
     FM311400 22013KT P6SM BKN050=



000
FTUS41 KLWX 301135
TAFIAD
TAF
KIAD 301135Z 3012/3118 20009KT P6SM BKN050 OVC100
     FM301500 25009KT P6SM SCT050
     FM301700 28013G26KT P6SM SCT050
     FM310100 29007KT P6SM FEW250
     FM310800 23005KT P6SM SCT250
     FM311500 21011KT P6SM BKN090=



000
FTUS41 KLWX 301135
TAFMRB
TAF
KMRB 301135Z 3012/3112 20006KT P6SM OVC040
     FM301400 26009KT P6SM BKN050
     FM301600 28013G20KT P6SM SCT050
     FM310000 29009KT P6SM SCT050
     FM310600 VRB04KT P6SM BKN050=



000
FTUS41 KLWX 301135
TAFCHO
TAF
KCHO 301135Z 3012/3112 21009KT P6SM BKN090
     FM301400 24006KT P6SM SCT250
     FM301700 28010G18KT P6SM FEW250
     FM310100 29006KT P6SM FEW250
     FM310800 VRB04KT P6SM SCT130=



000
FTUS41 KLWX 301135
TAFIAD
TAF
KIAD 301135Z 3012/3118 20009KT P6SM BKN050 OVC100
     FM301500 25009KT P6SM SCT050
     FM301700 28013G26KT P6SM SCT050
     FM310100 29007KT P6SM FEW250
     FM310800 23005KT P6SM SCT250
     FM311500 21011KT P6SM BKN090=



000
FTUS41 KLWX 301135
TAFMTN
TAF
KMTN 301135Z 3012/3112 17006KT P6SM OVC080
     FM301700 27013G26KT P6SM SCT050
     FM310100 29009KT P6SM FEW050
     FM310400 26005KT P6SM SCT250
     FM310700 VRB03KT P6SM BKN050=



000
FTUS41 KLWX 300900 AAC
TAFBWI
TAF AMD
KBWI 300900Z 3009/3112 18005KT 6SM -RASNPL BKN050
     FM301000 18005KT P6SM BKN050
     FM301200 21010KT P6SM BKN050
     FM301600 25012G19KT P6SM SCT050
     FM302000 29015KT P6SM SCT050
     FM310100 29009KT P6SM FEW050
     FM311000 25005KT P6SM SCT050=



000
FTUS41 KLWX 300900 AAB
TAFDCA
TAF AMD
KDCA 300900Z 3009/3106 17012KT P6SM BKN050
      TEMPO 3009/3010 6SM -RASN
     FM301000 20011KT P6SM BKN050
     FM301200 20010KT P6SM BKN050
     FM301500 24011G18KT P6SM SCT050
     FM301800 28013G20KT P6SM SCT050
     FM310000 29009KT P6SM FEW050=



000
FTUS41 KLWX 300900 AAA
TAFIAD
TAF AMD
KIAD 300900Z 3009/3112 19009KT P6SM SCT040 OVC080
     FM301100 20010KT P6SM OVC040
     FM301600 26011G18KT P6SM SCT250
     FM310000 29008KT P6SM FEW050
     FM310800 23005KT P6SM SCT250=



000
FTUS41 KLWX 300900 AAB
TAFDCA
TAF AMD
KDCA 300900Z 3009/3106 17012KT P6SM BKN050
      TEMPO 3009/3010 6SM -RASN
     FM301000 20011KT P6SM BKN050
     FM301200 20010KT P6SM BKN050
     FM301500 24011G18KT P6SM SCT050
     FM301800 28013G20KT P6SM SCT050
     FM310000 29009KT P6SM FEW050=



000
FTUS41 KLWX 300900 AAC
TAFBWI
TAF AMD
KBWI 300900Z 3009/3112 18005KT 6SM -RASNPL BKN050
     FM301000 18005KT P6SM BKN050
     FM301200 21010KT P6SM BKN050
     FM301600 25012G19KT P6SM SCT050
     FM302000 29015KT P6SM SCT050
     FM310100 29009KT P6SM FEW050
     FM311000 25005KT P6SM SCT050=



000
FTUS41 KLWX 300900 AAA
TAFIAD
TAF AMD
KIAD 300900Z 3009/3112 19009KT P6SM SCT040 OVC080
     FM301100 20010KT P6SM OVC040
     FM301600 26011G18KT P6SM SCT250
     FM310000 29008KT P6SM FEW050
     FM310800 23005KT P6SM SCT250=



000
FTUS41 KLWX 300843 AAB
TAFBWI
TAF AMD
KBWI 300843Z 3009/3112 VRB03KT 6SM -RASNPL BKN050
     FM301000 21010KT P6SM -RA BKN050
     FM301200 21012KT P6SM BKN050
     FM301600 25012G19KT P6SM SCT050
     FM302000 29015KT P6SM SCT050
     FM310100 29009KT P6SM FEW050
     FM311000 25005KT P6SM SCT050=



000
FTUS41 KLWX 300843 AAB
TAFBWI
TAF AMD
KBWI 300843Z 3009/3112 VRB03KT 6SM -RASNPL BKN050
     FM301000 21010KT P6SM -RA BKN050
     FM301200 21012KT P6SM BKN050
     FM301600 25012G19KT P6SM SCT050
     FM302000 29015KT P6SM SCT050
     FM310100 29009KT P6SM FEW050
     FM311000 25005KT P6SM SCT050=



000
FTUS41 KLWX 300827 AAA
TAFDCA
TAF AMD
KDCA 300827Z 3008/3106 19010KT P6SM BKN050
      TEMPO 3008/3009 6SM -RASNPL OVC040
     FM301000 20011KT P6SM -RASNPL BKN050
     FM301200 20010KT P6SM BKN050
     FM301500 24011G18KT P6SM SCT050
     FM301800 28013G20KT P6SM SCT050
     FM310000 29009KT P6SM FEW050=



000
FTUS41 KLWX 300827 AAA
TAFDCA
TAF AMD
KDCA 300827Z 3008/3106 19010KT P6SM BKN050
      TEMPO 3008/3009 6SM -RASNPL OVC040
     FM301000 20011KT P6SM -RASNPL BKN050
     FM301200 20010KT P6SM BKN050
     FM301500 24011G18KT P6SM SCT050
     FM301800 28013G20KT P6SM SCT050
     FM310000 29009KT P6SM FEW050=



000
FTUS41 KLWX 300621 AAA
TAFBWI
TAF AMD
KBWI 300621Z 3006/3112 20009KT P6SM BKN090 WS020/22040KT
      TEMPO 3006/3007 4SM -RASNPL OVC040
     FM300800 20009KT P6SM BKN050
     FM301000 21010KT P6SM -RA BKN050
     FM301200 21012KT P6SM BKN050
     FM301600 25012G19KT P6SM SCT050
     FM302000 29015KT P6SM SCT050
     FM310100 29009KT P6SM FEW050
     FM311000 25005KT P6SM SCT050=



000
FTUS41 KLWX 300621 AAA
TAFBWI
TAF AMD
KBWI 300621Z 3006/3112 20009KT P6SM BKN090 WS020/22040KT
      TEMPO 3006/3007 4SM -RASNPL OVC040
     FM300800 20009KT P6SM BKN050
     FM301000 21010KT P6SM -RA BKN050
     FM301200 21012KT P6SM BKN050
     FM301600 25012G19KT P6SM SCT050
     FM302000 29015KT P6SM SCT050
     FM310100 29009KT P6SM FEW050
     FM311000 25005KT P6SM SCT050=



000
FTUS41 KLWX 300541
TAFDCA
TAF
KDCA 300541Z 3006/3106 19010KT P6SM BKN050 WS020/22040KT
     FM300800 19010KT P6SM BKN050
     FM301000 20011KT P6SM -RA BKN050
     FM301200 20010KT P6SM BKN050
     FM301500 24011G18KT P6SM SCT050
     FM301800 28013G20KT P6SM SCT050
     FM310000 29009KT P6SM FEW050=



000
FTUS41 KLWX 300541
TAFCHO
TAF
KCHO 300541Z 3006/3106 20009KT P6SM BKN090
     FM301400 24007KT P6SM SCT250
     FM301800 29011G18KT P6SM FEW250
     FM310000 29007KT P6SM FEW250=



000
FTUS41 KLWX 300541
TAFMRB
TAF
KMRB 300541Z 3006/3106 18007KT P6SM OVC050
      TEMPO 3008/3010 21010G20KT 6SM -RA OVC040
     FM301600 28012KT P6SM SCT050
     FM310100 28008KT P6SM SCT050
     FM310300 27007KT P6SM FEW250=



000
FTUS41 KLWX 300541
TAFMTN
TAF
KMTN 300541Z 3006/3106 NIL=



000
FTUS41 KLWX 300541
TAFBWI
TAF
KBWI 300541Z 3006/3112 20009KT P6SM BKN090 WS020/22040KT
      TEMPO 3006/3007 6SM -RASNPL OVC050
     FM300800 20009KT P6SM BKN050
     FM301000 21010KT P6SM -RA BKN050
     FM301200 21012KT P6SM BKN050
     FM301600 25012G19KT P6SM SCT050
     FM302000 29015KT P6SM SCT050
     FM310100 29009KT P6SM FEW050
     FM311000 25005KT P6SM SCT050=



000
FTUS41 KLWX 300541
TAFIAD
TAF
KIAD 300541Z 3006/3112 18010G15KT P6SM SCT010 BKN050 WS020/22040KT
     FM300900 19009KT 6SM -RA OVC040
     FM301100 20010KT P6SM OVC040
     FM301600 26011G18KT P6SM SCT250
     FM310000 29008KT P6SM FEW050
     FM310800 23005KT P6SM SCT250=



000
FTUS41 KLWX 300541
TAFIAD
TAF
KIAD 300541Z 3006/3112 18010G15KT P6SM SCT010 BKN050 WS020/22040KT
     FM300900 19009KT 6SM -RA OVC040
     FM301100 20010KT P6SM OVC040
     FM301600 26011G18KT P6SM SCT250
     FM310000 29008KT P6SM FEW050
     FM310800 23005KT P6SM SCT250=



000
FTUS41 KLWX 300541
TAFDCA
TAF
KDCA 300541Z 3006/3106 19010KT P6SM BKN050 WS020/22040KT
     FM300800 19010KT P6SM BKN050
     FM301000 20011KT P6SM -RA BKN050
     FM301200 20010KT P6SM BKN050
     FM301500 24011G18KT P6SM SCT050
     FM301800 28013G20KT P6SM SCT050
     FM310000 29009KT P6SM FEW050=



000
FTUS41 KLWX 300541
TAFCHO
TAF
KCHO 300541Z 3006/3106 20009KT P6SM BKN090
     FM301400 24007KT P6SM SCT250
     FM301800 29011G18KT P6SM FEW250
     FM310000 29007KT P6SM FEW250=



000
FTUS41 KLWX 300541
TAFBWI
TAF
KBWI 300541Z 3006/3112 20009KT P6SM BKN090 WS020/22040KT
      TEMPO 3006/3007 6SM -RASNPL OVC050
     FM300800 20009KT P6SM BKN050
     FM301000 21010KT P6SM -RA BKN050
     FM301200 21012KT P6SM BKN050
     FM301600 25012G19KT P6SM SCT050
     FM302000 29015KT P6SM SCT050
     FM310100 29009KT P6SM FEW050
     FM311000 25005KT P6SM SCT050=



000
FTUS41 KLWX 300541
TAFMTN
TAF
KMTN 300541Z 3006/3106 NIL=



000
FTUS41 KLWX 300541
TAFMRB
TAF
KMRB 300541Z 3006/3106 18007KT P6SM OVC050
      TEMPO 3008/3010 21010G20KT 6SM -RA OVC040
     FM301600 28012KT P6SM SCT050
     FM310100 28008KT P6SM SCT050
     FM310300 27007KT P6SM FEW250=



000
FTUS41 KLWX 300516 AAC
TAFBWI
TAF AMD
KBWI 300516Z 3005/3106 18008KT P6SM OVC100 WS020/22040KT
      TEMPO 3005/3006 6SM -RAPL SCT010 OVC050
     FM300900 20009KT P6SM -RA OVC030
     FM301200 20010KT P6SM OVC050
     FM301500 24011KT P6SM BKN050
     FM301800 28014G25KT P6SM SCT050
     FM302300 29009KT P6SM FEW250=



000
FTUS41 KLWX 300516 AAC
TAFBWI
TAF AMD
KBWI 300516Z 3005/3106 18008KT P6SM OVC100 WS020/22040KT
      TEMPO 3005/3006 6SM -RAPL SCT010 OVC050
     FM300900 20009KT P6SM -RA OVC030
     FM301200 20010KT P6SM OVC050
     FM301500 24011KT P6SM BKN050
     FM301800 28014G25KT P6SM SCT050
     FM302300 29009KT P6SM FEW250=



000
FTUS41 KLWX 300515 AAB
TAFDCA
TAF AMD
KDCA 300515Z 3005/3024 19008KT P6SM OVC090 WS020/22040KT
      TEMPO 3005/3006 6SM -RAPL SCT010 OVC050
     FM300900 20009KT P6SM -RA OVC035
     FM301100 20010KT P6SM OVC050
     FM301300 21012KT P6SM BKN050
     FM301700 27014G25KT P6SM SCT050=



000
FTUS41 KLWX 300515 AAB
TAFDCA
TAF AMD
KDCA 300515Z 3005/3024 19008KT P6SM OVC090 WS020/22040KT
      TEMPO 3005/3006 6SM -RAPL SCT010 OVC050
     FM300900 20009KT P6SM -RA OVC035
     FM301100 20010KT P6SM OVC050
     FM301300 21012KT P6SM BKN050
     FM301700 27014G25KT P6SM SCT050=



000
FTUS41 KLWX 300245 AAB
TAFMRB
TAF AMD
KMRB 300245Z 3003/3024 16008KT P6SM BKN080 WS020/22040KT
      TEMPO 3004/3006 -RA BKN040
     FM300700 21008KT P6SM OVC035 WS020/22040KT
     FM301200 22006KT P6SM BKN040
     FM301500 28010G18KT P6SM BKN045
     FM301700 28014G22KT P6SM SCT040=



000
FTUS41 KLWX 300245 AAB
TAFMRB
TAF AMD
KMRB 300245Z 3003/3024 16008KT P6SM BKN080 WS020/22040KT
      TEMPO 3004/3006 -RA BKN040
     FM300700 21008KT P6SM OVC035 WS020/22040KT
     FM301200 22006KT P6SM BKN040
     FM301500 28010G18KT P6SM BKN045
     FM301700 28014G22KT P6SM SCT040=



000
FTUS41 KLWX 300243 AAA
TAFMTN
TAF AMD
KMTN 300243Z 3003/3024 15010KT P6SM BKN250
     FM300400 18009KT P6SM BKN100 WS020/22040KT
     FM300900 20010KT P6SM -RA OVC030
     FM301200 20011KT P6SM OVC040
     FM301400 26012G22KT P6SM BKN040
     FM302300 29008KT P6SM FEW250=



000
FTUS41 KLWX 300243 AAA
TAFMTN
TAF AMD
KMTN 300243Z 3003/3024 15010KT P6SM BKN250
     FM300400 18009KT P6SM BKN100 WS020/22040KT
     FM300900 20010KT P6SM -RA OVC030
     FM301200 20011KT P6SM OVC040
     FM301400 26012G22KT P6SM BKN040
     FM302300 29008KT P6SM FEW250=



000
FTUS41 KLWX 300242 AAB
TAFBWI
TAF AMD
KBWI 300242Z 3003/3106 16006KT P6SM BKN250
     FM300400 18008KT P6SM OVC100 WS020/22040KT
     FM300900 20009KT P6SM -RA OVC030
     FM301200 20010KT P6SM OVC050
     FM301500 24011KT P6SM BKN050
     FM301800 28014G25KT P6SM SCT050
     FM302300 29009KT P6SM FEW250=



000
FTUS41 KLWX 300242 AAB
TAFBWI
TAF AMD
KBWI 300242Z 3003/3106 16006KT P6SM BKN250
     FM300400 18008KT P6SM OVC100 WS020/22040KT
     FM300900 20009KT P6SM -RA OVC030
     FM301200 20010KT P6SM OVC050
     FM301500 24011KT P6SM BKN050
     FM301800 28014G25KT P6SM SCT050
     FM302300 29009KT P6SM FEW250=



000
FTUS41 KLWX 300241 AAA
TAFDCA
TAF AMD
KDCA 300241Z 3003/3024 17009KT P6SM SCT200 WS020/19040KT
     FM300500 19008KT P6SM OVC090 WS020/22040KT
     FM300900 20009KT P6SM -RA OVC035
     FM301100 20010KT P6SM OVC050
     FM301300 21012KT P6SM BKN050
     FM301700 27014G25KT P6SM SCT050=



000
FTUS41 KLWX 300241 AAA
TAFIAD
TAF AMD
KIAD 300241Z 3003/3106 16008KT P6SM BKN250 WS020/19040KT
     FM300400 19008KT P6SM OVC090 WS020/22040KT
     FM300800 19009KT P6SM -RA OVC040
     FM301000 20010KT P6SM OVC045
     FM301600 25010G22KT P6SM SCT050
     FM302300 29012KT P6SM FEW060
     FM310100 29008KT P6SM FEW050=



000
FTUS41 KLWX 300241 AAA
TAFIAD
TAF AMD
KIAD 300241Z 3003/3106 16008KT P6SM BKN250 WS020/19040KT
     FM300400 19008KT P6SM OVC090 WS020/22040KT
     FM300800 19009KT P6SM -RA OVC040
     FM301000 20010KT P6SM OVC045
     FM301600 25010G22KT P6SM SCT050
     FM302300 29012KT P6SM FEW060
     FM310100 29008KT P6SM FEW050=



000
FTUS41 KLWX 300241 AAA
TAFDCA
TAF AMD
KDCA 300241Z 3003/3024 17009KT P6SM SCT200 WS020/19040KT
     FM300500 19008KT P6SM OVC090 WS020/22040KT
     FM300900 20009KT P6SM -RA OVC035
     FM301100 20010KT P6SM OVC050
     FM301300 21012KT P6SM BKN050
     FM301700 27014G25KT P6SM SCT050=



000
FTUS41 KLWX 292346 AAA
TAFMRB
TAF AMD
KMRB 292346Z 3000/3024 17007KT P6SM SCT150
     FM300300 18007KT P6SM BKN080 WS020/22040KT
     FM300700 21008KT P6SM OVC035
     FM301200 22006KT P6SM BKN040
     FM301500 28010G18KT P6SM BKN045
     FM301700 28014G22KT P6SM SCT040=



000
FTUS41 KLWX 292346 AAA
TAFMRB
TAF AMD
KMRB 292346Z 3000/3024 17007KT P6SM SCT150
     FM300300 18007KT P6SM BKN080 WS020/22040KT
     FM300700 21008KT P6SM OVC035
     FM301200 22006KT P6SM BKN040
     FM301500 28010G18KT P6SM BKN045
     FM301700 28014G22KT P6SM SCT040=



000
FTUS41 KLWX 292345 CCA
TAFMTN
TAF COR
KMTN 292345Z 3000/3024 17010KT P6SM SCT250
     FM300400 19009KT P6SM BKN100 WS020/22040KT
     FM300900 20010KT P6SM -RA OVC030
     FM301200 20011KT P6SM OVC040
     FM301400 26012G22KT P6SM BKN040
     FM302300 29008KT P6SM FEW250=



000
FTUS41 KLWX 292345 CCA
TAFMTN
TAF COR
KMTN 292345Z 3000/3024 17010KT P6SM SCT250
     FM300400 19009KT P6SM BKN100 WS020/22040KT
     FM300900 20010KT P6SM -RA OVC030
     FM301200 20011KT P6SM OVC040
     FM301400 26012G22KT P6SM BKN040
     FM302300 29008KT P6SM FEW250=



000
FTUS41 KLWX 292344 CCA
TAFDCA
TAF COR
KDCA 292344Z 3000/3024 17006KT P6SM SCT200
     FM300500 19008KT P6SM OVC100 WS020/22040KT
     FM300900 20009KT P6SM -RA OVC035
     FM301100 20010KT P6SM OVC050
     FM301300 21012KT P6SM BKN050
     FM301700 27014G25KT P6SM SCT050=



000
FTUS41 KLWX 292344 CCA
TAFDCA
TAF COR
KDCA 292344Z 3000/3024 17006KT P6SM SCT200
     FM300500 19008KT P6SM OVC100 WS020/22040KT
     FM300900 20009KT P6SM -RA OVC035
     FM301100 20010KT P6SM OVC050
     FM301300 21012KT P6SM BKN050
     FM301700 27014G25KT P6SM SCT050=



000
FTUS41 KLWX 292344 AAA
TAFBWI
TAF AMD
KBWI 292344Z 3000/3106 20005KT P6SM SCT250
     FM300400 19008KT P6SM OVC100 WS020/22040KT
     FM300900 20009KT P6SM -RA OVC030
     FM301200 20010KT P6SM OVC050
     FM301500 24011KT P6SM BKN050
     FM301800 28014G25KT P6SM SCT050
     FM302300 29009KT P6SM FEW250=



000
FTUS41 KLWX 292344 AAA
TAFBWI
TAF AMD
KBWI 292344Z 3000/3106 20005KT P6SM SCT250
     FM300400 19008KT P6SM OVC100 WS020/22040KT
     FM300900 20009KT P6SM -RA OVC030
     FM301200 20010KT P6SM OVC050
     FM301500 24011KT P6SM BKN050
     FM301800 28014G25KT P6SM SCT050
     FM302300 29009KT P6SM FEW250=



000
FTUS41 KLWX 292343 CCA
TAFIAD
TAF COR
KIAD 292343Z 3000/3106 17007KT P6SM BKN250
     FM300400 19008KT P6SM OVC090 WS020/22040KT
     FM300800 19009KT P6SM -RA OVC040
     FM301000 20010KT P6SM OVC045
     FM301600 25010G22KT P6SM SCT050
     FM302300 29012KT P6SM FEW060
     FM310100 29008KT P6SM FEW050=



000
FTUS41 KLWX 292343 CCA
TAFIAD
TAF COR
KIAD 292343Z 3000/3106 17007KT P6SM BKN250
     FM300400 19008KT P6SM OVC090 WS020/22040KT
     FM300800 19009KT P6SM -RA OVC040
     FM301000 20010KT P6SM OVC045
     FM301600 25010G22KT P6SM SCT050
     FM302300 29012KT P6SM FEW060
     FM310100 29008KT P6SM FEW050=



000
FTUS41 KLWX 292340
TAFBWI
TAF
KBWI 292340Z 3000/3106 20005KT P6SM SCT250
     FM300400 19008KT P6SM OVC100
     FM300900 20009KT P6SM -RA OVC030
     FM301200 20010KT P6SM OVC050
     FM301500 24011KT P6SM BKN050
     FM301800 28014G25KT P6SM SCT050
     FM302300 29009KT P6SM FEW250=



000
FTUS41 KLWX 292340
TAFMTN
TAF
KMTN 292340Z 3000/3024 17010KT P6SM SCT250
     FM300400 19009KT P6SM BKN100
     FM300900 20010KT P6SM -RA OVC030
     FM301200 20011KT P6SM OVC040
     FM301400 26012G22KT P6SM BKN040
     FM302300 29008KT P6SM FEW250=



000
FTUS41 KLWX 292340
TAFCHO
TAF
KCHO 292340Z 3000/3024 18010KT P6SM SCT150
     FM300500 19008KT P6SM BKN110
     FM301400 23009KT P6SM BKN080
     FM301600 24010KT P6SM SCT040
     FM301900 28011KT P6SM FEW040=



000
FTUS41 KLWX 292340
TAFIAD
TAF
KIAD 292340Z 3000/3106 17007KT P6SM BKN250
     FM300400 19008KT P6SM OVC090
     FM300800 19009KT P6SM -RA OVC040
     FM301000 20010KT P6SM OVC045
     FM301600 25010G22KT P6SM SCT050
     FM302300 29012KT P6SM FEW060
     FM310100 29008KT P6SM FEW050=



000
FTUS41 KLWX 292340
TAFMRB
TAF
KMRB 292340Z 3000/3024 17007KT P6SM SCT150
     FM300500 19007KT P6SM BKN080
     FM301200 22006KT P6SM BKN035
     FM301500 28010G18KT P6SM BKN045
     FM301700 28014G22KT P6SM SCT040=



000
FTUS41 KLWX 292340
TAFDCA
TAF
KDCA 292340Z 3000/3024 17006KT P6SM SCT200
     FM300500 19008KT P6SM OVC100
     FM300900 20009KT P6SM -RA OVC035
     FM301100 20010KT P6SM OVC050
     FM301300 21012KT P6SM BKN050
     FM301700 27014G25KT P6SM SCT050=



000
FTUS41 KLWX 292340
TAFBWI
TAF
KBWI 292340Z 3000/3106 20005KT P6SM SCT250
     FM300400 19008KT P6SM OVC100
     FM300900 20009KT P6SM -RA OVC030
     FM301200 20010KT P6SM OVC050
     FM301500 24011KT P6SM BKN050
     FM301800 28014G25KT P6SM SCT050
     FM302300 29009KT P6SM FEW250=



000
FTUS41 KLWX 292340
TAFMRB
TAF
KMRB 292340Z 3000/3024 17007KT P6SM SCT150
     FM300500 19007KT P6SM BKN080
     FM301200 22006KT P6SM BKN035
     FM301500 28010G18KT P6SM BKN045
     FM301700 28014G22KT P6SM SCT040=



000
FTUS41 KLWX 292340
TAFIAD
TAF
KIAD 292340Z 3000/3106 17007KT P6SM BKN250
     FM300400 19008KT P6SM OVC090
     FM300800 19009KT P6SM -RA OVC040
     FM301000 20010KT P6SM OVC045
     FM301600 25010G22KT P6SM SCT050
     FM302300 29012KT P6SM FEW060
     FM310100 29008KT P6SM FEW050=



000
FTUS41 KLWX 292340
TAFCHO
TAF
KCHO 292340Z 3000/3024 18010KT P6SM SCT150
     FM300500 19008KT P6SM BKN110
     FM301400 23009KT P6SM BKN080
     FM301600 24010KT P6SM SCT040
     FM301900 28011KT P6SM FEW040=



000
FTUS41 KLWX 292340
TAFDCA
TAF
KDCA 292340Z 3000/3024 17006KT P6SM SCT200
     FM300500 19008KT P6SM OVC100
     FM300900 20009KT P6SM -RA OVC035
     FM301100 20010KT P6SM OVC050
     FM301300 21012KT P6SM BKN050
     FM301700 27014G25KT P6SM SCT050=



000
FTUS41 KLWX 292340
TAFMTN
TAF
KMTN 292340Z 3000/3024 17010KT P6SM SCT250
     FM300400 19009KT P6SM BKN100
     FM300900 20010KT P6SM -RA OVC030
     FM301200 20011KT P6SM OVC040
     FM301400 26012G22KT P6SM BKN040
     FM302300 29008KT P6SM FEW250=



000
FTUS41 KLWX 292036 AAA
TAFBWI
TAF AMD
KBWI 292036Z 2921/3024 VRB05KT P6SM FEW250
     FM300100 18006KT P6SM SCT150
     FM300500 19008KT P6SM OVC100
     FM300900 20009KT P6SM -RA OVC045
     FM301100 20010KT P6SM OVC050
     FM301500 24011KT P6SM BKN050
     FM301800 28013G22KT P6SM SCT045=



000
FTUS41 KLWX 292032 AAA
TAFDCA
TAF AMD
KDCA 292032Z 2921/3018 VRB04KT P6SM FEW250
     FM300100 17006KT P6SM SCT150
     FM300500 19008KT P6SM OVC100
     FM300800 20009KT P6SM -RA OVC045
     FM301000 20010KT P6SM OVC050
     FM301500 24010KT P6SM BKN050
     FM301700 27012G20KT P6SM SCT040=



000
FTUS41 KLWX 292032 AAA
TAFIAD
TAF AMD
KIAD 292032Z 2921/3024 VRB05KT P6SM FEW250
     FM300100 17007KT P6SM BKN150
     FM300400 19008KT P6SM OVC090
     FM300800 19009KT P6SM -RA OVC040
     FM301000 20010KT P6SM OVC045
     FM301500 24010KT P6SM BKN050
     FM301700 27012G20KT P6SM SCT045=



000
FTUS41 KLWX 291731
TAFBWI
TAF
KBWI 291731Z 2918/3024 30005KT P6SM SKC
     FM292200 23005KT P6SM SKC
     FM300500 19008KT P6SM OVC100
     FM300700 20009KT P6SM -RA OVC045
     FM300800 20010KT P6SM OVC050
     FM301500 24011KT P6SM BKN050
     FM301800 28013G22KT P6SM SCT045=



000
FTUS41 KLWX 291731
TAFCHO
TAF
KCHO 291731Z 2918/3018 VRB03KT P6SM SKC
     FM300100 19007KT P6SM SCT150
     FM300400 20008KT P6SM BKN110
     FM301600 24009KT P6SM BKN040
     FM301700 26010G18KT P6SM SCT040=



000
FTUS41 KLWX 291731
TAFMTN
TAF
KMTN 291731Z 2918/3018 29005KT P6SM SKC
     FM292200 22006KT P6SM SKC
     FM300500 19009KT P6SM BKN100
     FM300700 20010KT P6SM -RA OVC045
     FM300800 20011KT P6SM OVC050
     FM301000 21011KT P6SM OVC030
     FM301100 21011KT P6SM OVC035
     FM301700 26012G21KT P6SM BKN040=



000
FTUS41 KLWX 291731
TAFMRB
TAF
KMRB 291731Z 2918/3018 29004KT P6SM SKC
     FM292100 22005KT P6SM FEW200
     FM300000 16006KT P6SM SCT150
     FM300500 19008KT P6SM OVC080
     FM301200 23007KT P6SM BKN040
     FM301500 27011KT P6SM BKN045
     FM301700 28014G23KT P6SM SCT040=



000
FTUS41 KLWX 291731
TAFDCA
TAF
KDCA 291731Z 2918/3018 29005KT P6SM SKC
     FM292200 23004KT P6SM SKC
     FM300100 17006KT P6SM SCT150
     FM300500 19008KT P6SM OVC100
     FM300700 20009KT P6SM -RA OVC045
     FM300800 20010KT P6SM OVC050
     FM301500 24010KT P6SM BKN050
     FM301700 27012G20KT P6SM SCT040=



000
FTUS41 KLWX 291731
TAFDCA
TAF
KDCA 291731Z 2918/3018 29005KT P6SM SKC
     FM292200 23004KT P6SM SKC
     FM300100 17006KT P6SM SCT150
     FM300500 19008KT P6SM OVC100
     FM300700 20009KT P6SM -RA OVC045
     FM300800 20010KT P6SM OVC050
     FM301500 24010KT P6SM BKN050
     FM301700 27012G20KT P6SM SCT040=



000
FTUS41 KLWX 291731
TAFMTN
TAF
KMTN 291731Z 2918/3018 29005KT P6SM SKC
     FM292200 22006KT P6SM SKC
     FM300500 19009KT P6SM BKN100
     FM300700 20010KT P6SM -RA OVC045
     FM300800 20011KT P6SM OVC050
     FM301000 21011KT P6SM OVC030
     FM301100 21011KT P6SM OVC035
     FM301700 26012G21KT P6SM BKN040=



000
FTUS41 KLWX 291731
TAFBWI
TAF
KBWI 291731Z 2918/3024 30005KT P6SM SKC
     FM292200 23005KT P6SM SKC
     FM300500 19008KT P6SM OVC100
     FM300700 20009KT P6SM -RA OVC045
     FM300800 20010KT P6SM OVC050
     FM301500 24011KT P6SM BKN050
     FM301800 28013G22KT P6SM SCT045=



000
FTUS41 KLWX 291731
TAFCHO
TAF
KCHO 291731Z 2918/3018 VRB03KT P6SM SKC
     FM300100 19007KT P6SM SCT150
     FM300400 20008KT P6SM BKN110
     FM301600 24009KT P6SM BKN040
     FM301700 26010G18KT P6SM SCT040=



000
FTUS41 KLWX 291731
TAFIAD
TAF
KIAD 291731Z 2918/3024 30005KT P6SM SKC
     FM292100 24004KT P6SM FEW250
     FM292300 18005KT P6SM FEW150
     FM300500 19008KT P6SM OVC090
     FM300700 19009KT P6SM -RA OVC040
     FM300800 20010KT P6SM OVC045
     FM301500 24010KT P6SM BKN050
     FM301700 27012G20KT P6SM SCT045=



000
FTUS41 KLWX 291731
TAFMRB
TAF
KMRB 291731Z 2918/3018 29004KT P6SM SKC
     FM292100 22005KT P6SM FEW200
     FM300000 16006KT P6SM SCT150
     FM300500 19008KT P6SM OVC080
     FM301200 23007KT P6SM BKN040
     FM301500 27011KT P6SM BKN045
     FM301700 28014G23KT P6SM SCT040=



000
FTUS41 KLWX 291731
TAFIAD
TAF
KIAD 291731Z 2918/3024 30005KT P6SM SKC
     FM292100 24004KT P6SM FEW250
     FM292300 18005KT P6SM FEW150
     FM300500 19008KT P6SM OVC090
     FM300700 19009KT P6SM -RA OVC040
     FM300800 20010KT P6SM OVC045
     FM301500 24010KT P6SM BKN050
     FM301700 27012G20KT P6SM SCT045=



000
FTUS41 KLWX 291448 AAA
TAFDCA
TAF AMD
KDCA 291448Z 2915/3012 31007KT P6SM SKC
     FM292200 24004KT P6SM FEW250
     FM300000 17005KT P6SM FEW250
     FM300600 19009KT P6SM OVC090=



000
FTUS41 KLWX 291448 AAA
TAFBWI
TAF AMD
KBWI 291448Z 2915/3018 32007KT P6SM SKC
     FM292100 VRB03KT P6SM FEW250
     FM300200 18007KT P6SM SCT150
     FM300600 19009KT P6SM OVC070
     FM301400 24012G21KT P6SM BKN040=



000
FTUS41 KLWX 291448 AAA
TAFIAD
TAF AMD
KIAD 291448Z 2915/3018 32007KT P6SM SKC
     FM292000 VRB03KT P6SM FEW250
     FM300200 17007KT P6SM SCT140
     FM300600 19008KT P6SM OVC070
     FM301400 24011G20KT P6SM BKN050
     FM301700 27013G24KT P6SM SCT040=



000
FTUS41 KLWX 291448 AAA
TAFIAD
TAF AMD
KIAD 291448Z 2915/3018 32007KT P6SM SKC
     FM292000 VRB03KT P6SM FEW250
     FM300200 17007KT P6SM SCT140
     FM300600 19008KT P6SM OVC070
     FM301400 24011G20KT P6SM BKN050
     FM301700 27013G24KT P6SM SCT040=



000
FTUS41 KLWX 291448 AAA
TAFDCA
TAF AMD
KDCA 291448Z 2915/3012 31007KT P6SM SKC
     FM292200 24004KT P6SM FEW250
     FM300000 17005KT P6SM FEW250
     FM300600 19009KT P6SM OVC090=



000
FTUS41 KLWX 291448 AAA
TAFBWI
TAF AMD
KBWI 291448Z 2915/3018 32007KT P6SM SKC
     FM292100 VRB03KT P6SM FEW250
     FM300200 18007KT P6SM SCT150
     FM300600 19009KT P6SM OVC070
     FM301400 24012G21KT P6SM BKN040=



000
FTUS41 KLWX 291132
TAFBWI
TAF
KBWI 291132Z 2912/3018 32009KT P6SM SKC
     FM291600 32005KT P6SM SKC
     FM292300 20004KT P6SM FEW250
     FM300300 18008KT P6SM SCT140
     FM300600 19009KT P6SM OVC070
     FM301400 24012G21KT P6SM BKN040=



000
FTUS41 KLWX 291132
TAFMRB
TAF
KMRB 291132Z 2912/3012 31007KT P6SM SKC
     FM292000 VRB03KT P6SM FEW250
     FM300300 18007KT P6SM BKN140=



000
FTUS41 KLWX 291132
TAFCHO
TAF
KCHO 291132Z 2912/3012 31004KT P6SM SKC
     FM292100 18004KT P6SM FEW250
     FM300600 19008KT P6SM OVC090=



000
FTUS41 KLWX 291132
TAFIAD
TAF
KIAD 291132Z 2912/3018 33009KT P6SM SKC
     FM291600 32005KT P6SM SKC
     FM292300 18004KT P6SM FEW250
     FM300300 18008KT P6SM SCT140
     FM300600 19008KT P6SM OVC070
     FM301400 24011G20KT P6SM BKN050
     FM301700 27013G24KT P6SM SCT040=



000
FTUS41 KLWX 291132
TAFMTN
TAF
KMTN 291132Z 2912/3012 32010KT P6SM SKC
     FM291600 31006KT P6SM SKC
     FM292200 25004KT P6SM FEW250
     FM300000 18005KT P6SM FEW250
     FM300400 18009KT P6SM BKN140=



000
FTUS41 KLWX 291132
TAFCHO
TAF
KCHO 291132Z 2912/3012 31004KT P6SM SKC
     FM292100 18004KT P6SM FEW250
     FM300600 19008KT P6SM OVC090=



000
FTUS41 KLWX 291132
TAFDCA
TAF
KDCA 291132Z 2912/3012 33009KT P6SM SKC
     FM292000 28005KT P6SM FEW250
     FM292300 20004KT P6SM FEW250
     FM300300 18008KT P6SM SCT140
     FM300600 19009KT P6SM OVC090=



000
FTUS41 KLWX 291132
TAFDCA
TAF
KDCA 291132Z 2912/3012 33009KT P6SM SKC
     FM292000 28005KT P6SM FEW250
     FM292300 20004KT P6SM FEW250
     FM300300 18008KT P6SM SCT140
     FM300600 19009KT P6SM OVC090=



000
FTUS41 KLWX 291132
TAFBWI
TAF
KBWI 291132Z 2912/3018 32009KT P6SM SKC
     FM291600 32005KT P6SM SKC
     FM292300 20004KT P6SM FEW250
     FM300300 18008KT P6SM SCT140
     FM300600 19009KT P6SM OVC070
     FM301400 24012G21KT P6SM BKN040=



000
FTUS41 KLWX 291132
TAFMTN
TAF
KMTN 291132Z 2912/3012 32010KT P6SM SKC
     FM291600 31006KT P6SM SKC
     FM292200 25004KT P6SM FEW250
     FM300000 18005KT P6SM FEW250
     FM300400 18009KT P6SM BKN140=



000
FTUS41 KLWX 291132
TAFIAD
TAF
KIAD 291132Z 2912/3018 33009KT P6SM SKC
     FM291600 32005KT P6SM SKC
     FM292300 18004KT P6SM FEW250
     FM300300 18008KT P6SM SCT140
     FM300600 19008KT P6SM OVC070
     FM301400 24011G20KT P6SM BKN050
     FM301700 27013G24KT P6SM SCT040=



000
FTUS41 KLWX 291132
TAFMRB
TAF
KMRB 291132Z 2912/3012 31007KT P6SM SKC
     FM292000 VRB03KT P6SM FEW250
     FM300300 18007KT P6SM BKN140=



000
FTUS41 KLWX 290853 AAA
TAFIAD
TAF AMD
KIAD 290853Z 2909/3012 32013KT P6SM SKC
     FM291200 32006KT P6SM SKC
     FM291800 30005KT P6SM SKC
     FM292000 24005KT P6SM FEW250
     FM292300 18005KT P6SM FEW250
     FM300600 19008KT P6SM OVC070=



000
FTUS41 KLWX 290853 AAA
TAFBWI
TAF AMD
KBWI 290853Z 2909/3012 30009KT P6SM FEW070
     FM292100 24006KT P6SM FEW250
     FM300100 18005KT P6SM FEW250
     FM300600 19009KT P6SM OVC100=



000
FTUS41 KLWX 290853 AAA
TAFDCA
TAF AMD
KDCA 290853Z 2909/3006 32012KT P6SM SKC
     FM291400 33007KT P6SM SKC
     FM292000 26006KT P6SM FEW250
     FM292300 20005KT P6SM FEW250=



000
FTUS41 KLWX 290533
TAFDCA
TAF
KDCA 290533Z 2906/3006 32012KT P6SM SKC
     FM291400 33007KT P6SM SKC
     FM292000 26006KT P6SM FEW250
     FM292300 20005KT P6SM FEW250=



000
FTUS41 KLWX 290533
TAFIAD
TAF
KIAD 290533Z 2906/3012 32013KT P6SM SKC
     FM291000 32006KT P6SM SKC
     FM291800 30005KT P6SM SKC
     FM292000 24005KT P6SM FEW250
     FM292300 18005KT P6SM FEW250
     FM300600 19008KT P6SM OVC070=



000
FTUS41 KLWX 290533
TAFBWI
TAF
KBWI 290533Z 2906/3012 31009KT P6SM FEW070
     FM292100 24006KT P6SM FEW250
     FM300100 18005KT P6SM FEW250
     FM300600 19009KT P6SM OVC100=



000
FTUS41 KLWX 290533
TAFMTN
TAF
KMTN 290533Z 2906/3006 NIL=



000
FTUS41 KLWX 290533
TAFCHO
TAF
KCHO 290533Z 2906/3006 VRB03KT P6SM SKC
     FM291400 33005KT P6SM SKC
     FM292000 20004KT P6SM FEW250=



000
FTUS41 KLWX 290533
TAFMRB
TAF
KMRB 290533Z 2906/3006 32011KT P6SM SKC
     FM290900 31005KT P6SM SKC
     FM292000 22006KT P6SM FEW250
     FM300000 16005KT P6SM SCT200
     FM300500 19007KT P6SM OVC110=



000
FTUS41 KLWX 290533
TAFDCA
TAF
KDCA 290533Z 2906/3006 32012KT P6SM SKC
     FM291400 33007KT P6SM SKC
     FM292000 26006KT P6SM FEW250
     FM292300 20005KT P6SM FEW250=



000
FTUS41 KLWX 290533
TAFBWI
TAF
KBWI 290533Z 2906/3012 31009KT P6SM FEW070
     FM292100 24006KT P6SM FEW250
     FM300100 18005KT P6SM FEW250
     FM300600 19009KT P6SM OVC100=



000
FTUS41 KLWX 290533
TAFMTN
TAF
KMTN 290533Z 2906/3006 NIL=



000
FTUS41 KLWX 290533
TAFMRB
TAF
KMRB 290533Z 2906/3006 32011KT P6SM SKC
     FM290900 31005KT P6SM SKC
     FM292000 22006KT P6SM FEW250
     FM300000 16005KT P6SM SCT200
     FM300500 19007KT P6SM OVC110=



000
FTUS41 KLWX 290533
TAFIAD
TAF
KIAD 290533Z 2906/3012 32013KT P6SM SKC
     FM291000 32006KT P6SM SKC
     FM291800 30005KT P6SM SKC
     FM292000 24005KT P6SM FEW250
     FM292300 18005KT P6SM FEW250
     FM300600 19008KT P6SM OVC070=



000
FTUS41 KLWX 290533
TAFCHO
TAF
KCHO 290533Z 2906/3006 VRB03KT P6SM SKC
     FM291400 33005KT P6SM SKC
     FM292000 20004KT P6SM FEW250=



000
FTUS41 KLWX 290225 AAA
TAFMTN
TAF AMD
KMTN 290225Z 2902/2924 28009G16KT P6SM FEW250
     FM291200 30008KT P6SM SKC
     FM292000 24006KT P6SM FEW250
      AMD NOT SKED TIL 291200=



000
FTUS41 KLWX 290225 AAA
TAFMTN
TAF AMD
KMTN 290225Z 2902/2924 28009G16KT P6SM FEW250
     FM291200 30008KT P6SM SKC
     FM292000 24006KT P6SM FEW250
      AMD NOT SKED TIL 291200=



000
FTUS41 KLWX 290225 AAA
TAFBWI
TAF AMD
KBWI 290225Z 2902/3006 29010G17KT P6SM FEW060
     FM291200 31009KT P6SM SKC
     FM292000 26006KT P6SM FEW250
     FM300200 18007KT P6SM SCT150
     FM300500 19009KT P6SM BKN090=



000
FTUS41 KLWX 290224 AAA
TAFDCA
TAF AMD
KDCA 290224Z 2902/2924 32011KT P6SM FEW060
     FM290500 31008KT P6SM SKC
     FM291900 26006KT P6SM FEW250=



000
FTUS41 KLWX 290223 AAA
TAFIAD
TAF AMD
KIAD 290223Z 2902/3006 32009KT P6SM SKC
     FM291800 26005KT P6SM FEW250
     FM292200 21005KT P6SM SCT250
     FM300500 19009KT P6SM OVC090=



000
FTUS41 KLWX 290156 AAA
TAFMRB
TAF AMD
KMRB 290156Z 2902/2924 32010G17KT P6SM FEW080
     FM290400 30008KT P6SM SKC
     FM291700 27005KT P6SM FEW250
     FM292000 23006KT P6SM FEW250
     FM292300 17005KT P6SM SCT250=



000
FTUS41 KLWX 290156 AAA
TAFMRB
TAF AMD
KMRB 290156Z 2902/2924 32010G17KT P6SM FEW080
     FM290400 30008KT P6SM SKC
     FM291700 27005KT P6SM FEW250
     FM292000 23006KT P6SM FEW250
     FM292300 17005KT P6SM SCT250=



000
FTUS41 KLWX 282340
TAFCHO
TAF
KCHO 282340Z 2900/2924 32006KT P6SM SKC
     FM292000 20004KT P6SM FEW250=



000
FTUS41 KLWX 282340
TAFMTN
TAF
KMTN 282340Z 2900/2924 29012G20KT P6SM BKN050
     FM290500 32010G17KT P6SM FEW250
     FM291200 30008KT P6SM SKC
     FM292000 24006KT P6SM FEW250
      AMD NOT SKED 2902/2912=



000
FTUS41 KLWX 282340
TAFDCA
TAF
KDCA 282340Z 2900/2924 33017G25KT P6SM BKN070
     FM290200 32012G19KT P6SM FEW090
     FM290500 32008KT P6SM SKC
     FM291900 26006KT P6SM FEW250=



000
FTUS41 KLWX 282340
TAFMRB
TAF
KMRB 282340Z 2900/2924 32013G20KT P6SM FEW060
     FM290100 32008KT P6SM FEW080
     FM291700 29005KT P6SM FEW250
     FM292000 23006KT P6SM FEW250
     FM292300 17005KT P6SM SCT250=



000
FTUS41 KLWX 282340
TAFIAD
TAF
KIAD 282340Z 2900/3006 32013G20KT P6SM BKN060
     FM290200 32009KT P6SM FEW090
     FM291800 26005KT P6SM FEW250
     FM292200 21005KT P6SM SCT250
     FM300500 19009KT P6SM OVC090=



000
FTUS41 KLWX 282340
TAFBWI
TAF
KBWI 282340Z 2900/3006 31014G21KT P6SM BKN050
     FM290300 32011G18KT P6SM FEW090
     FM291200 31009KT P6SM SKC
     FM292000 26006KT P6SM FEW250
     FM300200 18007KT P6SM SCT150
     FM300500 19009KT P6SM BKN090=



000
FTUS41 KLWX 282340
TAFMTN
TAF
KMTN 282340Z 2900/2924 29012G20KT P6SM BKN050
     FM290500 32010G17KT P6SM FEW250
     FM291200 30008KT P6SM SKC
     FM292000 24006KT P6SM FEW250
      AMD NOT SKED 2902/2912=



000
FTUS41 KLWX 282340
TAFCHO
TAF
KCHO 282340Z 2900/2924 32006KT P6SM SKC
     FM292000 20004KT P6SM FEW250=



000
FTUS41 KLWX 282340
TAFBWI
TAF
KBWI 282340Z 2900/3006 31014G21KT P6SM BKN050
     FM290300 32011G18KT P6SM FEW090
     FM291200 31009KT P6SM SKC
     FM292000 26006KT P6SM FEW250
     FM300200 18007KT P6SM SCT150
     FM300500 19009KT P6SM BKN090=



000
FTUS41 KLWX 282340
TAFMRB
TAF
KMRB 282340Z 2900/2924 32013G20KT P6SM FEW060
     FM290100 32008KT P6SM FEW080
     FM291700 29005KT P6SM FEW250
     FM292000 23006KT P6SM FEW250
     FM292300 17005KT P6SM SCT250=



000
FTUS41 KLWX 282340
TAFDCA
TAF
KDCA 282340Z 2900/2924 33017G25KT P6SM BKN070
     FM290200 32012G19KT P6SM FEW090
     FM290500 32008KT P6SM SKC
     FM291900 26006KT P6SM FEW250=



000
FTUS41 KLWX 282340
TAFIAD
TAF
KIAD 282340Z 2900/3006 32013G20KT P6SM BKN060
     FM290200 32009KT P6SM FEW090
     FM291800 26005KT P6SM FEW250
     FM292200 21005KT P6SM SCT250
     FM300500 19009KT P6SM OVC090=



000
FTUS41 KLWX 282216 AAB
TAFIAD
TAF AMD
KIAD 282216Z 2822/2924 32016G24KT P6SM BKN050
     FM290000 32012KT P6SM SCT090
     FM291100 32008KT P6SM SKC
     FM292000 24005KT P6SM FEW250
     FM292300 18005KT P6SM FEW250=



000
FTUS41 KLWX 282216 AAB
TAFIAD
TAF AMD
KIAD 282216Z 2822/2924 32016G24KT P6SM BKN050
     FM290000 32012KT P6SM SCT090
     FM291100 32008KT P6SM SKC
     FM292000 24005KT P6SM FEW250
     FM292300 18005KT P6SM FEW250=



000
FTUS41 KLWX 282214 AAA
TAFMRB
TAF AMD
KMRB 282214Z 2822/2918 32014G24KT P6SM BKN060
     FM290100 32011KT P6SM SCT080
     FM290800 31007KT P6SM SKC=



000
FTUS41 KLWX 282213 AAB
TAFBWI
TAF AMD
KBWI 282213Z 2822/2924 34015G24KT P6SM -SN BKN050
     FM290000 32013G21KT P6SM BKN060
     FM290300 32010G17KT P6SM SCT080
     FM290900 31009KT P6SM SKC
     FM292100 24006KT P6SM FEW250=



000
FTUS41 KLWX 282213 AAB
TAFBWI
TAF AMD
KBWI 282213Z 2822/2924 34015G24KT P6SM -SN BKN050
     FM290000 32013G21KT P6SM BKN060
     FM290300 32010G17KT P6SM SCT080
     FM290900 31009KT P6SM SKC
     FM292100 24006KT P6SM FEW250=



000
FTUS41 KLWX 282037 AAA
TAFBWI
TAF AMD
KBWI 282037Z 2821/2924 32017G25KT P6SM -SHSN BKN045
     FM282200 31014G22KT P6SM BKN060
     FM290200 32011G19KT P6SM SCT100
     FM291200 31009KT P6SM SKC
     FM292100 24006KT P6SM FEW250=



000
FTUS41 KLWX 282037 AAA
TAFBWI
TAF AMD
KBWI 282037Z 2821/2924 32017G25KT P6SM -SHSN BKN045
     FM282200 31014G22KT P6SM BKN060
     FM290200 32011G19KT P6SM SCT100
     FM291200 31009KT P6SM SKC
     FM292100 24006KT P6SM FEW250=



000
FTUS41 KLWX 282036 AAA
TAFDCA
TAF AMD
KDCA 282036Z 2821/2918 31014G24KT P6SM BKN060
     FM290000 31011G18KT P6SM SCT070
     FM290400 32008KT P6SM SKC=



000
FTUS41 KLWX 282033 AAA
TAFIAD
TAF AMD
KIAD 282033Z 2821/2924 32016G24KT P6SM BKN050
     FM282300 32012KT P6SM SCT090
     FM290800 32008KT P6SM SKC
     FM292000 24005KT P6SM FEW250
     FM292300 18005KT P6SM FEW250=



000
FTUS41 KLWX 281958 AAA
TAFCHO
TAF AMD
KCHO 281958Z 2820/2918 32010G17KT P6SM BKN060
     FM282200 32008KT P6SM FEW060
     FM290000 32006KT P6SM SKC=



000
FTUS41 KLWX 281957 AAA
TAFMTN
TAF AMD
KMTN 281957Z 2820/2918 29014G23KT P6SM SCT020 OVC050
      TEMPO 2820/2822 -SHSN SCT015 OVC040
     FM282200 30014G22KT P6SM BKN050
     FM290200 31012G20KT P6SM SCT100
     FM291400 32010KT P6SM SKC=



000
FTUS41 KLWX 281957 AAA
TAFMTN
TAF AMD
KMTN 281957Z 2820/2918 29014G23KT P6SM SCT020 OVC050
      TEMPO 2820/2822 -SHSN SCT015 OVC040
     FM282200 30014G22KT P6SM BKN050
     FM290200 31012G20KT P6SM SCT100
     FM291400 32010KT P6SM SKC=



000
FTUS41 KLWX 281720
TAFCHO
TAF
KCHO 281720Z 2818/2918 32010KT P6SM SCT060
     FM290000 32006KT P6SM SKC=



000
FTUS41 KLWX 281720
TAFDCA
TAF
KDCA 281720Z 2818/2918 31013G23KT P6SM BKN060
     FM290000 31010KT P6SM SCT070=



000
FTUS41 KLWX 281720
TAFIAD
TAF
KIAD 281720Z 2818/2924 32014G24KT P6SM BKN060
     FM282300 32012KT P6SM SCT090
     FM290800 32008KT P6SM SKC
     FM292000 24005KT P6SM FEW250
     FM292300 18005KT P6SM FEW250=



000
FTUS41 KLWX 281720
TAFMRB
TAF
KMRB 281720Z 2818/2918 32014G24KT P6SM BKN060
     FM282300 32011KT P6SM SCT100
     FM290800 31007KT P6SM SKC=



000
FTUS41 KLWX 281720
TAFMTN
TAF
KMTN 281720Z 2818/2918 31014G23KT P6SM OVC050
     FM282000 31014G25KT P6SM -SHRASN BKN050
     FM282200 32014G22KT P6SM BKN050
     FM290200 33012G20KT P6SM SCT100
     FM291400 32010KT P6SM SKC=



000
FTUS41 KLWX 281720
TAFDCA
TAF
KDCA 281720Z 2818/2918 31013G23KT P6SM BKN060
     FM290000 31010KT P6SM SCT070=



000
FTUS41 KLWX 281720
TAFCHO
TAF
KCHO 281720Z 2818/2918 32010KT P6SM SCT060
     FM290000 32006KT P6SM SKC=



000
FTUS41 KLWX 281720
TAFIAD
TAF
KIAD 281720Z 2818/2924 32014G24KT P6SM BKN060
     FM282300 32012KT P6SM SCT090
     FM290800 32008KT P6SM SKC
     FM292000 24005KT P6SM FEW250
     FM292300 18005KT P6SM FEW250=



000
FTUS41 KLWX 281720
TAFMRB
TAF
KMRB 281720Z 2818/2918 32014G24KT P6SM BKN060
     FM282300 32011KT P6SM SCT100
     FM290800 31007KT P6SM SKC=



000
FTUS41 KLWX 281720
TAFMTN
TAF
KMTN 281720Z 2818/2918 31014G23KT P6SM OVC050
     FM282000 31014G25KT P6SM -SHRASN BKN050
     FM282200 32014G22KT P6SM BKN050
     FM290200 33012G20KT P6SM SCT100
     FM291400 32010KT P6SM SKC=



000
FTUS41 KLWX 281720
TAFBWI
TAF
KBWI 281720Z 2818/2924 31013G23KT P6SM BKN060
     FM282000 31014G25KT P6SM -SHRASN BKN050
     FM282200 31014G22KT P6SM BKN050
     FM290200 32011G19KT P6SM SCT100
     FM291200 31009KT P6SM SKC
     FM292100 24006KT P6SM FEW250=



000
FTUS41 KLWX 281720
TAFBWI
TAF
KBWI 281720Z 2818/2924 31013G23KT P6SM BKN060
     FM282000 31014G25KT P6SM -SHRASN BKN050
     FM282200 31014G22KT P6SM BKN050
     FM290200 32011G19KT P6SM SCT100
     FM291200 31009KT P6SM SKC
     FM292100 24006KT P6SM FEW250=



000
FTUS41 KLWX 281453 AAA
TAFMTN
TAF AMD
KMTN 281453Z 2815/2912 32012G23KT 6SM -SHSN BKN050
     FM281600 32011G22KT P6SM BKN050
     FM290200 32013KT P6SM SCT100=



000
FTUS41 KLWX 281453 AAA
TAFCHO
TAF AMD
KCHO 281453Z 2815/2912 32012G24KT P6SM SCT080
     FM282300 32010KT P6SM FEW250
     FM290400 32006KT P6SM FEW250=



000
FTUS41 KLWX 281453 AAA
TAFDCA
TAF AMD
KDCA 281453Z 2815/2912 32011G22KT P6SM SCT080
     FM281700 32010G20KT P6SM BKN060
     FM282300 32012KT P6SM SCT070
     FM290900 32008KT P6SM FEW250=



000
FTUS41 KLWX 281453 AAA
TAFIAD
TAF AMD
KIAD 281453Z 2815/2918 33015G29KT P6SM SCT080
     FM281700 32014G27KT P6SM BKN060
     FM282200 32014G22KT P6SM SCT070
     FM290400 32009KT P6SM FEW250=



000
FTUS41 KLWX 281453 AAA
TAFBWI
TAF AMD
KBWI 281453Z 2815/2918 32011G20KT P6SM BKN060
     FM290100 32012KT P6SM SCT080
     FM291600 31008KT P6SM SKC=



000
FTUS41 KLWX 281453 AAA
TAFMRB
TAF AMD
KMRB 281453Z 2815/2912 33014G26KT P6SM SCT080
     FM281600 33013G25KT P6SM BKN070
     FM282200 32014G22KT P6SM SCT080
     FM290200 33010KT P6SM FEW250
     FM291000 31006KT P6SM SKC=



000
FTUS41 KLWX 281136
TAFMTN
TAF
KMTN 281136Z 2812/2912 33014KT P6SM SCT040 BKN090
     FM281900 32013G26KT P6SM BKN060
     FM290100 32013KT P6SM BKN070
     FM290200 32013KT P6SM SCT100=



000
FTUS41 KLWX 281136
TAFMTN
TAF
KMTN 281136Z 2812/2912 33014KT P6SM SCT040 BKN090
     FM281900 32013G26KT P6SM BKN060
     FM290100 32013KT P6SM BKN070
     FM290200 32013KT P6SM SCT100=



000
FTUS41 KLWX 281135
TAFIAD
TAF
KIAD 281135Z 2812/2918 32015KT P6SM SCT040 BKN090
     FM281700 32014G28KT P6SM BKN060
     FM282200 32013KT P6SM SCT060
     FM290000 31009KT P6SM SCT100=



000
FTUS41 KLWX 281135
TAFMTN
TAF
KMTN 281135Z 2812/2912 33014KT P6SM SCT040 BKN090
     FM281900 32013G26KT P6SM BKN060
     FM290100 32013KT P6SM BKN070
     FM290200 32013KT P6SM SCT100=



000
FTUS41 KLWX 281135
TAFDCA
TAF
KDCA 281135Z 2812/2912 32013KT P6SM SCT040 BKN090
     FM282000 31013G28KT P6SM BKN060
     FM282300 31012KT P6SM SCT060
     FM290900 32008KT P6SM FEW250=



000
FTUS41 KLWX 281135
TAFCHO
TAF
KCHO 281135Z 2812/2912 34011KT P6SM BKN050
     FM281500 33011KT P6SM SCT060
     FM290000 31007KT P6SM FEW250=



000
FTUS41 KLWX 281135
TAFMRB
TAF
KMRB 281135Z 2812/2912 32012KT P6SM SCT040 BKN090
     FM281600 33014G25KT P6SM BKN060
     FM282200 32013KT P6SM SCT060
     FM290000 32009KT P6SM SCT110=



000
FTUS41 KLWX 281135
TAFBWI
TAF
KBWI 281135Z 2812/2918 32013KT P6SM SCT040 BKN090
     FM282000 31013G27KT P6SM BKN060
     FM290000 32012KT P6SM BKN060
     FM290100 32012KT P6SM SCT080
     FM291600 31008KT P6SM SKC=



000
FTUS41 KLWX 281135
TAFMRB
TAF
KMRB 281135Z 2812/2912 32012KT P6SM SCT040 BKN090
     FM281600 33014G25KT P6SM BKN060
     FM282200 32013KT P6SM SCT060
     FM290000 32009KT P6SM SCT110=



000
FTUS41 KLWX 281135
TAFMTN
TAF
KMTN 281135Z 2812/2912 33014KT P6SM SCT040 BKN090
     FM281900 32013G26KT P6SM BKN060
     FM290100 32013KT P6SM BKN070
     FM290200 32013KT P6SM SCT100=



000
FTUS41 KLWX 281135
TAFCHO
TAF
KCHO 281135Z 2812/2912 34011KT P6SM BKN050
     FM281500 33011KT P6SM SCT060
     FM290000 31007KT P6SM FEW250=



000
FTUS41 KLWX 281135
TAFBWI
TAF
KBWI 281135Z 2812/2918 32013KT P6SM SCT040 BKN090
     FM282000 31013G27KT P6SM BKN060
     FM290000 32012KT P6SM BKN060
     FM290100 32012KT P6SM SCT080
     FM291600 31008KT P6SM SKC=



000
FTUS41 KLWX 281135
TAFIAD
TAF
KIAD 281135Z 2812/2918 32015KT P6SM SCT040 BKN090
     FM281700 32014G28KT P6SM BKN060
     FM282200 32013KT P6SM SCT060
     FM290000 31009KT P6SM SCT100=



000
FTUS41 KLWX 281135
TAFDCA
TAF
KDCA 281135Z 2812/2912 32013KT P6SM SCT040 BKN090
     FM282000 31013G28KT P6SM BKN060
     FM282300 31012KT P6SM SCT060
     FM290900 32008KT P6SM FEW250=



000
FTUS41 KLWX 280857 AAA
TAFDCA
TAF AMD
KDCA 280857Z 2809/2906 33015KT P6SM BKN080
     FM281300 32013G23KT P6SM BKN040
     FM282300 31012KT P6SM SCT060=



000
FTUS41 KLWX 280857 AAA
TAFBWI
TAF AMD
KBWI 280857Z 2809/2912 33011KT P6SM BKN070
     FM281400 31013G23KT P6SM BKN060
     FM290100 32012KT P6SM SCT060=



000
FTUS41 KLWX 280857 AAA
TAFIAD
TAF AMD
KIAD 280857Z 2809/2912 34010KT P6SM BKN080
     FM281400 32014G23KT P6SM BKN060
     FM282200 31012KT P6SM SCT060
     FM290100 32008KT P6SM FEW250=



000
FTUS41 KLWX 280535
TAFIAD
TAF
KIAD 280535Z 2806/2912 34010KT P6SM SCT150
     FM281400 32014G23KT P6SM BKN060
     FM282200 31012KT P6SM SCT060
     FM290100 32008KT P6SM FEW250=



000
FTUS41 KLWX 280535
TAFDCA
TAF
KDCA 280535Z 2806/2906 33015KT P6SM SCT150
     FM281300 32013G23KT P6SM BKN040
     FM282300 31012KT P6SM SCT060=



000
FTUS41 KLWX 280535
TAFIAD
TAF
KIAD 280535Z 2806/2912 34010KT P6SM SCT150
     FM281400 32014G23KT P6SM BKN060
     FM282200 31012KT P6SM SCT060
     FM290100 32008KT P6SM FEW250=



000
FTUS41 KLWX 280535
TAFBWI
TAF
KBWI 280535Z 2806/2912 33011KT P6SM SCT060
     FM281400 31013G23KT P6SM BKN060
     FM290100 32012KT P6SM SCT060=



000
FTUS41 KLWX 280535
TAFMRB
TAF
KMRB 280535Z 2806/2906 33013KT P6SM BKN250
     FM281400 32014G23KT P6SM BKN060
     FM282200 32013KT P6SM SCT060
     FM290000 32009KT P6SM SCT250=



000
FTUS41 KLWX 280535
TAFMTN
TAF
KMTN 280535Z 2806/2906 NIL=



000
FTUS41 KLWX 280535
TAFCHO
TAF
KCHO 280535Z 2806/2906 34006KT P6SM OVC050
     FM281500 32010G19KT P6SM SCT060
     FM290000 31007KT P6SM FEW250=



000
FTUS41 KLWX 280535
TAFMTN
TAF
KMTN 280535Z 2806/2906 NIL=



000
FTUS41 KLWX 280535
TAFCHO
TAF
KCHO 280535Z 2806/2906 34006KT P6SM OVC050
     FM281500 32010G19KT P6SM SCT060
     FM290000 31007KT P6SM FEW250=



000
FTUS41 KLWX 280535
TAFDCA
TAF
KDCA 280535Z 2806/2906 33015KT P6SM SCT150
     FM281300 32013G23KT P6SM BKN040
     FM282300 31012KT P6SM SCT060=



000
FTUS41 KLWX 280535
TAFBWI
TAF
KBWI 280535Z 2806/2912 33011KT P6SM SCT060
     FM281400 31013G23KT P6SM BKN060
     FM290100 32012KT P6SM SCT060=



000
FTUS41 KLWX 280535
TAFMRB
TAF
KMRB 280535Z 2806/2906 33013KT P6SM BKN250
     FM281400 32014G23KT P6SM BKN060
     FM282200 32013KT P6SM SCT060
     FM290000 32009KT P6SM SCT250=



    US Dept of Commerce
    National Oceanic and Atmospheric Administration
    National Weather Service
    1325 East West Highway
    Silver Spring, MD 20910
    Page Author: NWS Internet Services Team
Disclaimer
Information Quality
Credits
Glossary
Privacy Policy
Freedom of Information Act (FOIA)
About Us
Career Opportunities